createdAt,value
2018-11-06T00:01:41.020Z,26.63
2018-11-06T00:04:12.529Z,26.60
2018-11-06T00:06:43.777Z,25.40
2018-11-06T00:09:13.111Z,27.40
2018-11-06T00:11:42.370Z,31.10
2018-11-06T00:14:11.602Z,25.83
2018-11-06T00:16:41.055Z,29.00
2018-11-06T00:19:10.233Z,25.57
2018-11-06T00:21:39.511Z,23.23
2018-11-06T00:24:08.705Z,28.57
2018-11-06T00:26:37.986Z,24.50
2018-11-06T00:29:07.306Z,28.83
2018-11-06T00:31:36.457Z,25.20
2018-11-06T00:34:05.909Z,24.97
2018-11-06T00:36:35.015Z,24.43
2018-11-06T00:39:04.297Z,24.30
2018-11-06T00:41:33.792Z,22.43
2018-11-06T00:44:03.144Z,25.17
2018-11-06T00:46:32.429Z,23.57
2018-11-06T00:49:02.106Z,23.50
2018-11-06T00:51:31.373Z,28.30
2018-11-06T00:54:00.617Z,23.37
2018-11-06T00:56:29.776Z,26.27
2018-11-06T00:58:58.998Z,25.97
2018-11-06T01:01:28.154Z,21.60
2018-11-06T01:04:02.319Z,22.93
2018-11-06T01:06:31.390Z,27.87
2018-11-06T01:09:00.719Z,21.03
2018-11-06T01:11:29.891Z,29.17
2018-11-06T01:13:59.138Z,20.03
2018-11-06T01:16:28.067Z,23.40
2018-11-06T01:18:58.003Z,20.80
2018-11-06T01:21:27.461Z,30.63
2018-11-06T01:23:56.698Z,21.77
2018-11-06T01:26:25.831Z,23.70
2018-11-06T01:28:55.164Z,23.20
2018-11-06T01:31:24.312Z,30.80
2018-11-06T01:33:54.067Z,24.67
2018-11-06T01:36:23.513Z,24.10
2018-11-06T01:38:53.103Z,24.93
2018-11-06T01:41:22.546Z,23.50
2018-11-06T01:43:52.311Z,20.97
2018-11-06T01:46:21.640Z,30.07
2018-11-06T01:48:50.780Z,29.27
2018-11-06T01:51:20.406Z,32.87
2018-11-06T01:53:49.810Z,25.50
2018-11-06T01:56:19.143Z,28.70
2018-11-06T01:58:48.790Z,18.60
2018-11-06T02:01:18.217Z,20.20
2018-11-06T02:03:47.614Z,19.40
2018-11-06T02:06:17.078Z,20.00
2018-11-06T02:08:46.496Z,22.10
2018-11-06T02:11:15.768Z,19.70
2018-11-06T02:13:45.156Z,16.40
2018-11-06T02:16:14.729Z,20.40
2018-11-06T02:18:44.314Z,21.40
2018-11-06T02:21:13.676Z,22.90
2018-11-06T02:23:43.390Z,19.77
2018-11-06T02:26:12.879Z,27.90
2018-11-06T02:28:42.308Z,16.70
2018-11-06T02:31:11.475Z,19.53
2018-11-06T02:33:40.715Z,16.20
2018-11-06T02:36:10.657Z,17.77
2018-11-06T02:38:40.089Z,21.63
2018-11-06T02:41:09.432Z,16.53
2018-11-06T02:43:39.492Z,14.43
2018-11-06T02:46:08.686Z,16.43
2018-11-06T02:48:38.090Z,14.57
2018-11-06T02:51:07.403Z,13.70
2018-11-06T02:53:36.765Z,17.07
2018-11-06T02:56:06.661Z,16.90
2018-11-06T02:58:36.098Z,14.97
2018-11-06T03:01:05.520Z,17.07
2018-11-06T03:03:39.864Z,16.03
2018-11-06T03:06:10.087Z,17.70
2018-11-06T03:08:39.204Z,19.80
2018-11-06T03:11:08.448Z,15.37
2018-11-06T03:13:37.970Z,17.57
2018-11-06T03:16:07.374Z,16.40
2018-11-06T03:18:36.609Z,14.50
2018-11-06T03:21:05.917Z,14.37
2018-11-06T03:23:35.013Z,15.10
2018-11-06T03:26:04.115Z,18.17
2018-11-06T03:28:33.203Z,13.63
2018-11-06T03:31:02.403Z,17.83
2018-11-06T03:33:31.445Z,16.03
2018-11-06T03:36:00.696Z,16.20
2018-11-06T03:38:29.702Z,16.00
2018-11-06T03:40:58.932Z,18.17
2018-11-06T03:43:28.020Z,13.90
2018-11-06T03:45:57.062Z,14.07
2018-11-06T03:48:26.347Z,12.83
2018-11-06T03:50:55.442Z,15.97
2018-11-06T03:53:24.651Z,14.23
2018-11-06T03:55:53.720Z,18.63
2018-11-06T03:58:22.769Z,15.00
2018-11-06T04:00:51.863Z,16.00
2018-11-06T04:03:20.908Z,15.00
2018-11-06T04:05:49.933Z,16.27
2018-11-06T04:08:19.025Z,16.93
2018-11-06T04:10:48.113Z,13.50
2018-11-06T04:13:17.136Z,13.30
2018-11-06T04:15:46.338Z,14.03
2018-11-06T04:18:15.510Z,13.87
2018-11-06T04:20:44.688Z,14.70
2018-11-06T04:23:13.852Z,14.03
2018-11-06T04:25:42.918Z,15.77
2018-11-06T04:28:12.726Z,18.10
2018-11-06T04:30:42.274Z,12.93
2018-11-06T04:33:11.527Z,11.17
2018-11-06T04:35:40.962Z,18.77
2018-11-06T04:38:10.562Z,16.30
2018-11-06T04:40:40.015Z,15.40
2018-11-06T04:43:09.195Z,14.53
2018-11-06T04:45:38.368Z,19.73
2018-11-06T04:48:07.598Z,12.70
2018-11-06T04:50:36.731Z,12.83
2018-11-06T04:53:06.118Z,10.77
2018-11-06T04:55:35.329Z,16.77
2018-11-06T04:58:04.950Z,14.10
2018-11-06T05:00:34.145Z,11.40
2018-11-06T05:03:04.415Z,13.40
2018-11-06T05:05:33.927Z,13.90
2018-11-06T05:08:03.197Z,12.87
2018-11-06T05:10:32.638Z,12.37
2018-11-06T05:13:02.051Z,12.37
2018-11-06T05:15:31.619Z,14.50
2018-11-06T05:18:01.354Z,16.20
2018-11-06T05:20:30.749Z,15.87
2018-11-06T05:23:00.153Z,15.30
2018-11-06T05:25:29.778Z,17.03
2018-11-06T05:27:58.897Z,14.13
2018-11-06T05:30:28.511Z,10.80
2018-11-06T05:32:57.952Z,14.40
2018-11-06T05:35:27.461Z,14.00
2018-11-06T05:37:57.657Z,15.93
2018-11-06T05:40:37.510Z,9.93
2018-11-06T05:43:07.959Z,11.60
2018-11-06T05:45:39.311Z,16.40
2018-11-06T05:48:08.810Z,15.60
2018-11-06T05:50:37.846Z,13.50
2018-11-06T05:53:07.323Z,12.87
2018-11-06T05:55:36.653Z,16.00
2018-11-06T05:58:05.843Z,14.60
2018-11-06T06:00:35.299Z,14.33
2018-11-06T06:03:04.470Z,12.80
2018-11-06T06:05:33.810Z,13.77
2018-11-06T06:08:02.892Z,13.53
2018-11-06T06:10:32.756Z,15.27
2018-11-06T06:13:02.441Z,12.47
2018-11-06T06:15:32.085Z,14.87
2018-11-06T06:18:01.472Z,13.30
2018-11-06T06:20:31.040Z,13.50
2018-11-06T06:23:00.653Z,13.70
2018-11-06T06:25:30.019Z,14.97
2018-11-06T06:28:00.261Z,13.50
2018-11-06T06:30:30.138Z,13.57
2018-11-06T06:32:59.592Z,13.57
2018-11-06T06:35:29.038Z,13.43
2018-11-06T06:37:58.326Z,13.13
2018-11-06T06:40:28.834Z,12.70
2018-11-06T06:42:58.057Z,11.50
2018-11-06T06:45:28.296Z,11.77
2018-11-06T06:47:57.378Z,12.80
2018-11-06T06:50:26.509Z,12.00
2018-11-06T06:52:55.620Z,11.30
2018-11-06T06:55:24.812Z,12.30
2018-11-06T06:57:54.061Z,13.90
2018-11-06T07:00:23.443Z,13.30
2018-11-06T07:03:01.312Z,12.37
2018-11-06T07:05:33.920Z,12.50
2018-11-06T07:08:05.484Z,15.07
2018-11-06T07:10:35.371Z,11.90
2018-11-06T07:13:12.155Z,14.57
2018-11-06T07:15:50.567Z,12.57
2018-11-06T07:18:24.585Z,14.10
2018-11-06T07:20:54.528Z,11.87
2018-11-06T07:23:26.501Z,16.20
2018-11-06T07:25:58.269Z,15.43
2018-11-06T07:47:13.358Z,13.33
2018-11-06T07:49:44.370Z,14.80
2018-11-06T07:52:13.615Z,16.63
2018-11-06T07:54:42.698Z,15.10
2018-11-06T07:57:11.728Z,15.40
2018-11-06T07:59:40.850Z,14.93
2018-11-06T08:02:09.894Z,15.40
2018-11-06T08:04:38.935Z,13.20
2018-11-06T08:07:07.956Z,14.17
2018-11-06T08:09:37.028Z,14.67
2018-11-06T08:12:06.693Z,15.20
2018-11-06T08:14:35.847Z,16.80
2018-11-06T08:17:05.227Z,16.30
2018-11-06T08:19:34.260Z,16.87
2018-11-06T08:22:03.363Z,16.80
2018-11-06T08:24:32.450Z,16.50
2018-11-06T08:27:01.512Z,16.80
2018-11-06T08:29:30.682Z,15.60
2018-11-06T08:32:00.426Z,16.40
2018-11-06T08:34:28.838Z,17.07
2018-11-06T08:36:57.904Z,16.57
2018-11-06T08:39:26.821Z,16.17
2018-11-06T08:41:56.001Z,15.63
2018-11-06T08:44:25.065Z,17.60
2018-11-06T08:46:54.303Z,15.70
2018-11-06T08:49:23.390Z,15.00
2018-11-06T08:51:52.494Z,14.70
2018-11-06T08:54:21.725Z,16.40
2018-11-06T08:56:50.816Z,15.90
2018-11-06T08:59:19.955Z,16.03
2018-11-06T09:01:49.151Z,17.10
2018-11-06T09:04:18.187Z,16.27
2018-11-06T09:06:47.223Z,15.60
2018-11-06T09:09:16.235Z,15.43
2018-11-06T09:11:45.350Z,16.00
2018-11-06T09:14:14.453Z,14.87
2018-11-06T09:16:43.575Z,16.20
2018-11-06T09:19:12.782Z,17.00
2018-11-06T09:22:09.607Z,16.77
2018-11-06T09:24:56.820Z,15.97
2018-11-06T09:27:26.014Z,15.77
2018-11-06T09:29:55.198Z,16.10
2018-11-06T09:32:24.499Z,15.23
2018-11-06T09:34:53.763Z,16.70
2018-11-06T09:37:22.879Z,13.70
2018-11-06T09:39:51.993Z,14.77
2018-11-06T09:42:21.942Z,15.57
2018-11-06T09:44:51.039Z,14.47
2018-11-06T09:47:20.665Z,14.57
2018-11-06T09:49:49.937Z,14.77
2018-11-06T09:52:19.378Z,13.97
2018-11-06T09:54:48.668Z,14.37
2018-11-06T09:57:17.770Z,14.10
2018-11-06T09:59:47.091Z,13.90
2018-11-06T10:02:16.823Z,15.23
2018-11-06T10:04:46.044Z,15.20
2018-11-06T10:07:15.704Z,14.53
2018-11-06T10:09:44.721Z,14.60
2018-11-06T10:12:14.411Z,13.70
2018-11-06T10:14:43.676Z,14.07
2018-11-06T10:17:12.862Z,14.73
2018-11-06T10:19:47.876Z,14.77
2018-11-06T10:22:17.901Z,14.40
2018-11-06T10:24:47.591Z,13.73
2018-11-06T10:27:16.991Z,14.27
2018-11-06T10:30:37.070Z,13.07
2018-11-06T10:33:36.799Z,13.30
2018-11-06T10:51:21.671Z,12.93
2018-11-06T10:53:51.712Z,13.63
2018-11-06T10:56:21.205Z,14.43
2018-11-06T10:58:50.707Z,12.60
2018-11-06T11:01:25.671Z,12.07
2018-11-06T11:04:27.025Z,11.90
2018-11-06T11:06:56.501Z,12.90
2018-11-06T11:09:26.441Z,12.40
2018-11-06T11:11:56.932Z,12.43
2018-11-06T11:14:26.652Z,11.40
2018-11-06T11:16:56.418Z,12.80
2018-11-06T11:19:26.067Z,11.30
2018-11-06T11:21:55.854Z,11.97
2018-11-06T11:24:25.322Z,11.87
2018-11-06T11:27:01.433Z,11.23
2018-11-06T11:29:31.387Z,12.10
2018-11-06T11:32:01.058Z,11.33
2018-11-06T11:34:30.308Z,11.20
2018-11-06T11:36:59.736Z,11.30
2018-11-06T11:39:29.221Z,12.00
2018-11-06T11:41:58.523Z,11.60
2018-11-06T11:44:30.611Z,10.00
2018-11-06T11:47:00.252Z,11.60
2018-11-06T11:49:29.583Z,10.50
2018-11-06T11:51:58.889Z,10.80
2018-11-06T11:54:28.111Z,10.27
2018-11-06T11:56:57.469Z,9.97
2018-11-06T11:59:27.012Z,11.07
2018-11-06T12:02:00.607Z,10.70
2018-11-06T12:04:33.245Z,10.57
2018-11-06T12:07:03.574Z,10.33
2018-11-06T12:09:35.502Z,10.70
2018-11-06T12:12:10.577Z,10.23
2018-11-06T12:14:41.079Z,9.60
2018-11-06T12:17:12.433Z,9.90
2018-11-06T12:20:02.971Z,10.73
2018-11-06T12:22:41.421Z,8.67
2018-11-06T12:25:14.230Z,10.83
2018-11-06T12:27:47.109Z,9.87
2018-11-06T12:33:03.157Z,9.37
2018-11-06T12:41:38.878Z,9.67
2018-11-06T12:44:09.354Z,9.07
2018-11-06T12:46:41.284Z,9.17
2018-11-06T12:49:10.728Z,9.70
2018-11-06T12:51:41.933Z,9.07
2018-11-06T12:54:11.259Z,8.37
2018-11-06T12:56:42.486Z,10.63
2018-11-06T12:59:15.311Z,8.63
2018-11-06T13:01:46.818Z,8.70
2018-11-06T13:04:16.876Z,8.30
2018-11-06T13:06:46.360Z,8.60
2018-11-06T13:09:17.055Z,9.30
2018-11-06T13:11:48.322Z,7.67
2018-11-06T13:14:18.945Z,8.67
2018-11-06T13:16:50.348Z,8.50
2018-11-06T13:19:20.128Z,9.03
2018-11-06T13:21:52.931Z,8.53
2018-11-06T13:24:25.919Z,8.37
2018-11-06T13:26:56.242Z,8.37
2018-11-06T13:29:26.207Z,8.60
2018-11-06T13:31:55.859Z,7.90
2018-11-06T13:34:25.484Z,9.20
2018-11-06T13:36:57.153Z,8.77
2018-11-06T13:39:27.309Z,8.47
2018-11-06T13:41:56.697Z,9.10
2018-11-06T13:44:26.406Z,8.10
2018-11-06T13:46:55.519Z,8.40
2018-11-06T13:49:24.971Z,8.30
2018-11-06T13:51:54.696Z,8.77
2018-11-06T13:54:27.260Z,8.87
2018-11-06T13:56:56.750Z,7.90
2018-11-06T13:59:25.789Z,8.00
2018-11-06T14:01:56.214Z,8.07
2018-11-06T14:04:25.862Z,8.87
2018-11-06T14:06:55.726Z,7.60
2018-11-06T14:09:27.173Z,8.67
2018-11-06T14:11:59.480Z,8.00
2018-11-06T14:14:34.337Z,8.20
2018-11-06T14:17:05.253Z,8.70
2018-11-06T14:19:35.979Z,7.57
2018-11-06T14:22:09.331Z,7.67
2018-11-06T14:24:40.946Z,8.10
2018-11-06T14:27:10.521Z,7.50
2018-11-06T14:29:40.252Z,6.60
2018-11-06T14:32:13.481Z,6.93
2018-11-06T14:34:44.125Z,6.47
2018-11-06T14:37:15.363Z,5.90
2018-11-06T14:39:46.673Z,6.60
2018-11-06T14:42:16.728Z,6.67
2018-11-06T14:44:45.930Z,6.70
2018-11-06T14:47:15.139Z,5.77
2018-11-06T14:49:44.308Z,6.43
2018-11-06T14:52:13.334Z,5.93
2018-11-06T14:54:55.542Z,6.43
2018-11-06T14:57:25.485Z,5.40
2018-11-06T14:59:54.703Z,5.70
2018-11-06T15:02:24.316Z,5.53
2018-11-06T15:04:53.461Z,5.70
2018-11-06T15:07:22.966Z,7.40
2018-11-06T15:09:52.129Z,6.03
2018-11-06T15:12:21.329Z,5.63
2018-11-06T15:14:50.515Z,6.13
2018-11-06T15:17:19.743Z,6.90
2018-11-06T15:19:50.536Z,6.53
2018-11-06T15:22:19.663Z,7.10
2018-11-06T15:24:49.864Z,7.60
2018-11-06T15:27:19.506Z,8.23
2018-11-06T15:29:48.868Z,8.83
2018-11-06T15:32:18.885Z,9.07
2018-11-06T15:34:48.071Z,8.83
2018-11-06T15:37:17.199Z,9.93
2018-11-06T15:39:46.583Z,10.33
2018-11-06T15:42:15.687Z,9.17
2018-11-06T15:44:44.824Z,8.97
2018-11-06T15:47:13.698Z,9.93
2018-11-06T15:49:42.575Z,9.23
2018-11-06T15:52:11.692Z,9.33
2018-11-06T15:54:40.794Z,8.33
2018-11-06T15:57:09.709Z,8.17
2018-11-06T15:59:38.727Z,9.23
2018-11-06T16:02:08.030Z,11.40
2018-11-06T16:04:37.102Z,10.97
2018-11-06T16:07:06.847Z,11.60
2018-11-06T16:09:36.019Z,10.73
2018-11-06T16:12:05.568Z,10.80
2018-11-06T16:14:34.536Z,9.63
2018-11-06T16:17:04.243Z,9.73
2018-11-06T16:19:34.354Z,9.83
2018-11-06T16:22:04.031Z,8.40
2018-11-06T16:24:33.372Z,8.97
2018-11-06T16:27:02.474Z,9.57
2018-11-06T16:29:31.512Z,8.80
2018-11-06T16:32:00.732Z,9.10
2018-11-06T16:34:32.473Z,11.97
2018-11-06T16:37:01.806Z,10.50
2018-11-06T16:39:32.038Z,11.13
2018-11-06T16:42:17.685Z,10.50
2018-11-06T16:44:56.381Z,8.50
2018-11-06T16:47:26.337Z,9.13
2018-11-06T16:49:56.616Z,9.57
2018-11-06T16:52:27.778Z,9.13
2018-11-06T16:54:57.097Z,11.70
2018-11-06T16:57:28.051Z,14.17
2018-11-06T16:59:57.613Z,12.43
2018-11-06T17:02:28.065Z,12.07
2018-11-06T17:04:58.062Z,10.77
2018-11-06T17:10:08.702Z,10.47
2018-11-06T17:12:37.764Z,10.77
2018-11-06T17:15:09.495Z,10.03
2018-11-06T17:17:42.219Z,12.20
2018-11-06T17:23:45.206Z,11.37
2018-11-06T17:26:15.651Z,12.23
2018-11-06T17:28:44.778Z,13.13
2018-11-06T17:31:13.821Z,12.07
2018-11-06T17:33:44.916Z,12.80
2018-11-06T17:36:15.762Z,9.93
2018-11-06T17:38:44.806Z,11.60
2018-11-06T17:41:14.110Z,11.00
2018-11-06T17:43:43.333Z,11.10
2018-11-06T17:46:13.042Z,12.77
2018-11-06T17:48:44.156Z,12.67
2018-11-06T17:51:13.264Z,13.50
2018-11-06T17:53:44.829Z,10.97
2018-11-06T17:56:14.454Z,12.67
2018-11-06T17:58:45.660Z,13.23
2018-11-06T18:01:19.617Z,12.90
2018-11-06T18:03:52.588Z,11.90
2018-11-06T18:06:23.417Z,10.37
2018-11-06T18:08:53.657Z,11.80
2018-11-06T18:11:24.017Z,13.13
2018-11-06T18:13:55.364Z,11.77
2018-11-06T18:16:24.821Z,12.70
2018-11-06T18:19:04.231Z,14.07
2018-11-06T18:21:36.135Z,25.80
2018-11-06T18:24:09.612Z,17.70
2018-11-06T18:26:40.856Z,15.63
2018-11-06T18:29:12.881Z,15.10
2018-11-06T18:31:43.286Z,13.23
2018-11-06T18:34:14.162Z,11.50
2018-11-06T18:36:45.055Z,11.07
2018-11-06T18:39:20.125Z,10.90
2018-11-06T18:41:50.183Z,12.70
2018-11-06T18:44:21.138Z,13.97
2018-11-06T18:46:55.614Z,13.47
2018-11-06T18:49:47.357Z,11.63
2018-11-06T18:52:37.741Z,13.90
2018-11-06T18:58:23.545Z,14.20
2018-11-06T19:00:53.147Z,18.47
2018-11-06T19:03:32.493Z,15.97
2018-11-06T19:06:18.783Z,15.37
2018-11-06T19:09:00.687Z,14.40
2018-11-06T19:11:42.162Z,14.73
2018-11-06T19:14:36.815Z,15.03
2018-11-06T19:17:09.574Z,13.30
2018-11-06T19:19:45.471Z,11.10
2018-11-06T19:22:20.143Z,11.90
2018-11-06T19:24:51.096Z,17.20
2018-11-06T19:27:21.947Z,16.07
2018-11-06T19:29:52.662Z,13.33
2018-11-06T19:32:23.960Z,13.90
2018-11-06T19:34:57.039Z,16.80
2018-11-06T19:37:27.773Z,17.07
2018-11-06T19:39:58.997Z,14.67
2018-11-06T19:42:30.640Z,13.93
2018-11-06T19:45:01.045Z,13.57
2018-11-06T19:47:33.275Z,16.47
2018-11-06T19:50:05.844Z,15.70
2018-11-06T19:52:36.773Z,13.57
2018-11-06T19:55:21.657Z,14.60
2018-11-06T19:58:00.123Z,14.27
2018-11-06T20:00:32.706Z,14.50
2018-11-06T20:03:08.251Z,14.67
2018-11-06T20:05:41.390Z,13.60
2018-11-06T20:08:16.686Z,14.73
2018-11-06T20:10:50.083Z,13.17
2018-11-06T20:13:21.992Z,13.20
2018-11-06T20:15:55.323Z,13.00
2018-11-06T20:18:28.643Z,12.73
2018-11-06T20:20:59.958Z,14.10
2018-11-06T20:23:33.360Z,15.53
2018-11-06T20:26:09.576Z,15.43
2018-11-06T20:28:43.822Z,15.83
2018-11-06T20:31:17.756Z,14.57
2018-11-06T20:33:50.797Z,17.03
2018-11-06T20:36:24.797Z,18.07
2018-11-06T20:38:58.036Z,16.27
2018-11-06T20:41:39.372Z,17.83
2018-11-06T20:44:09.721Z,16.93
2018-11-06T20:50:15.222Z,17.77
2018-11-06T20:53:32.375Z,14.83
2018-11-06T20:56:12.503Z,12.67
2018-11-06T20:59:05.560Z,16.80
2018-11-06T21:01:54.115Z,14.97
2018-11-06T21:04:27.447Z,15.90
2018-11-06T21:07:01.603Z,15.20
2018-11-06T21:09:31.957Z,16.17
2018-11-06T21:12:02.976Z,16.50
2018-11-06T21:14:42.707Z,17.13
2018-11-06T21:17:16.164Z,17.70
2018-11-06T21:19:49.686Z,16.07
2018-11-06T21:22:32.527Z,17.13
2018-11-06T21:25:03.033Z,20.63
2018-11-06T21:27:35.571Z,13.40
2018-11-06T21:30:09.870Z,11.80
2018-11-06T21:32:42.744Z,10.90
2018-11-06T21:35:19.581Z,10.60
2018-11-06T21:38:05.638Z,11.50
2018-11-06T21:40:40.673Z,15.03
2018-11-06T21:43:24.254Z,15.57
2018-11-06T21:46:04.680Z,12.80
2018-11-06T21:51:22.121Z,15.80
2018-11-06T21:54:11.957Z,13.83
2018-11-06T21:56:51.887Z,11.27
2018-11-06T21:59:45.352Z,15.30
2018-11-06T22:02:18.815Z,13.23
2018-11-06T22:04:51.660Z,12.47
2018-11-06T22:07:25.835Z,13.77
2018-11-06T22:09:57.067Z,15.23
2018-11-06T22:12:30.950Z,16.50
2018-11-06T22:15:05.373Z,15.97
2018-11-06T22:17:37.273Z,15.20
2018-11-06T22:20:23.947Z,15.03
2018-11-06T22:23:00.671Z,15.83
2018-11-06T22:25:33.472Z,15.00
2018-11-06T22:28:04.337Z,12.63
2018-11-06T22:30:34.941Z,11.30
2018-11-06T22:33:12.335Z,10.53
2018-11-06T22:35:42.903Z,8.93
2018-11-06T22:38:15.246Z,10.60
2018-11-06T22:40:45.251Z,9.10
2018-11-06T22:43:16.039Z,9.23
2018-11-06T22:45:48.688Z,9.37
2018-11-06T22:48:22.987Z,10.20
2018-11-06T22:50:56.063Z,10.40
2018-11-06T22:53:28.596Z,8.50
2018-11-06T22:56:00.621Z,8.33
2018-11-06T22:58:35.855Z,11.17
2018-11-06T23:01:14.591Z,9.03
2018-11-06T23:03:44.624Z,10.70
2018-11-06T23:06:16.499Z,10.13
2018-11-06T23:08:53.175Z,9.70
2018-11-06T23:11:23.602Z,11.80
2018-11-06T23:13:55.810Z,10.90
2018-11-06T23:19:06.184Z,10.50
2018-11-06T23:21:37.892Z,9.93
2018-11-06T23:24:16.296Z,12.67
2018-11-06T23:26:46.408Z,12.93
2018-11-06T23:29:17.364Z,13.77
2018-11-06T23:32:00.683Z,13.30
2018-11-06T23:34:38.421Z,13.73
2018-11-06T23:37:09.722Z,12.23
2018-11-06T23:39:56.115Z,12.03
2018-11-06T23:42:32.607Z,12.60
2018-11-06T23:45:03.008Z,13.00
2018-11-06T23:47:39.381Z,13.63
2018-11-06T23:50:16.422Z,14.00
2018-11-06T23:52:54.711Z,13.70
2018-11-06T23:55:40.342Z,13.13
2018-11-06T23:58:21.102Z,12.47
